createdAt,value
2023-05-09T00:00:11.680Z,90.16
2023-05-09T00:02:41.647Z,90.21
2023-05-09T00:05:16.758Z,90.08
2023-05-09T00:13:07.865Z,89.27
2023-05-09T00:15:36.540Z,89.84
2023-05-09T00:18:03.360Z,89.62
2023-05-09T00:20:31.240Z,89.70
2023-05-09T00:23:02.320Z,89.72
2023-05-09T00:25:30.111Z,89.65
2023-05-09T00:28:00.450Z,89.80
2023-05-09T00:30:30.893Z,89.99
2023-05-09T00:35:39.968Z,89.96
2023-05-09T00:38:07.313Z,90.27
2023-05-09T00:40:33.868Z,90.08
2023-05-09T00:43:07.782Z,90.30
2023-05-09T00:45:36.287Z,89.97
2023-05-09T00:48:03.397Z,90.06
2023-05-09T00:50:31.775Z,90.42
2023-05-09T00:53:06.171Z,90.31
2023-05-09T00:55:33.905Z,90.23
2023-05-09T00:58:03.944Z,90.68
2023-05-09T01:00:31.298Z,91.38
2023-05-09T01:02:58.600Z,91.60
2023-05-09T01:05:38.673Z,91.69
2023-05-09T01:08:12.434Z,91.66
2023-05-09T01:11:01.421Z,91.40
2023-05-09T01:13:45.903Z,91.55
2023-05-09T01:20:00.477Z,91.32
2023-05-09T01:22:32.230Z,92.01
2023-05-09T01:25:11.276Z,92.53
2023-05-09T01:27:45.360Z,92.77
2023-05-09T01:30:15.467Z,93.04
2023-05-09T01:35:28.233Z,93.42
2023-05-09T01:37:55.504Z,92.92
2023-05-09T01:40:31.103Z,92.47
2023-05-09T01:43:08.914Z,92.49
2023-05-09T01:45:40.844Z,92.19
2023-05-09T01:48:09.585Z,92.39
2023-05-09T01:53:26.669Z,92.45
2023-05-09T01:55:57.907Z,91.94
2023-05-09T02:01:09.541Z,92.13
2023-05-09T02:06:26.150Z,91.38
2023-05-09T02:11:34.076Z,91.39
2023-05-09T02:14:04.067Z,91.42
2023-05-09T02:16:32.479Z,91.90
2023-05-09T02:18:59.795Z,91.67
2023-05-09T02:26:48.291Z,92.23
2023-05-09T02:29:19.337Z,92.41
2023-05-09T02:31:52.315Z,92.38
2023-05-09T02:34:20.553Z,92.05
2023-05-09T02:36:49.119Z,92.05
2023-05-09T02:39:16.148Z,91.89
2023-05-09T02:41:48.356Z,92.32
2023-05-09T02:44:16.578Z,92.39
2023-05-09T02:46:44.782Z,92.67
2023-05-09T02:49:22.822Z,92.95
2023-05-09T02:51:57.855Z,92.96
2023-05-09T02:54:26.000Z,93.15
2023-05-09T02:56:56.380Z,93.29
2023-05-09T02:59:24.593Z,93.44
2023-05-09T03:01:51.347Z,93.07
2023-05-09T03:04:19.329Z,92.83
2023-05-09T03:06:49.879Z,92.86
2023-05-09T03:09:17.873Z,92.91
2023-05-09T03:11:45.926Z,92.76
2023-05-09T03:14:13.496Z,91.99
2023-05-09T03:16:40.074Z,92.01
2023-05-09T03:19:07.388Z,92.49
2023-05-09T03:21:34.254Z,92.68
2023-05-09T03:24:00.883Z,93.57
2023-05-09T03:29:08.701Z,94.10
2023-05-09T03:31:35.992Z,94.14
2023-05-09T03:34:06.317Z,94.62
2023-05-09T03:36:33.498Z,95.29
2023-05-09T03:39:00.900Z,96.08
2023-05-09T03:41:29.144Z,96.29
2023-05-09T03:43:57.384Z,96.78
2023-05-09T03:46:23.895Z,97.21
2023-05-09T03:48:51.044Z,97.23
2023-05-09T03:51:18.102Z,97.44
2023-05-09T03:56:27.686Z,97.51
2023-05-09T03:58:55.084Z,97.37
2023-05-09T04:01:23.356Z,97.04
2023-05-09T04:03:50.515Z,96.80
2023-05-09T04:06:17.434Z,96.87
2023-05-09T04:08:48.064Z,97.27
2023-05-09T04:11:16.216Z,97.52
2023-05-09T04:13:43.417Z,97.47
2023-05-09T04:16:10.347Z,97.54
2023-05-09T04:18:40.508Z,97.66
2023-05-09T04:21:07.190Z,97.56
2023-05-09T04:23:33.775Z,97.73
2023-05-09T04:26:00.968Z,97.80
2023-05-09T04:28:27.694Z,98.14
2023-05-09T04:30:54.407Z,98.52
2023-05-09T04:33:22.167Z,98.31
2023-05-09T04:35:48.792Z,98.34
2023-05-09T04:38:18.101Z,98.71
2023-05-09T04:40:44.771Z,98.53
2023-05-09T04:43:11.468Z,98.75
2023-05-09T04:45:38.255Z,98.67
2023-05-09T04:48:05.435Z,98.49
2023-05-09T04:50:32.007Z,98.56
2023-05-09T04:52:59.207Z,98.61
2023-05-09T04:55:26.360Z,98.79
2023-05-09T04:57:56.569Z,98.63
2023-05-09T05:00:24.404Z,98.73
2023-05-09T05:05:37.343Z,98.59
2023-05-09T05:08:21.620Z,98.36
2023-05-09T05:10:50.944Z,98.36
2023-05-09T05:13:17.672Z,98.20
2023-05-09T05:15:52.290Z,97.95
2023-05-09T05:18:18.963Z,97.75
2023-05-09T05:20:53.441Z,97.56
2023-05-09T05:28:49.083Z,96.98
2023-05-09T05:39:17.695Z,96.39
2023-05-09T05:44:25.017Z,96.31
2023-05-09T05:52:19.156Z,94.22
2023-05-09T06:00:28.754Z,93.53
2023-05-09T06:02:59.923Z,92.91
2023-05-09T06:05:26.780Z,92.58
2023-05-09T06:07:53.145Z,92.41
2023-05-09T06:10:19.736Z,92.25
2023-05-09T06:12:46.176Z,92.18
2023-05-09T06:15:13.171Z,91.63
2023-05-09T06:17:40.210Z,91.41
2023-05-09T06:20:07.203Z,91.29
2023-05-09T06:22:34.398Z,91.01
2023-05-09T06:25:00.890Z,90.98
2023-05-09T06:27:27.352Z,90.84
2023-05-09T06:29:53.784Z,90.28
2023-05-09T06:32:20.469Z,90.22
2023-05-09T06:34:46.964Z,90.23
2023-05-09T06:37:13.549Z,89.93
2023-05-09T06:39:40.288Z,89.98
2023-05-09T06:42:06.651Z,90.35
2023-05-09T06:44:33.089Z,90.38
2023-05-09T06:46:59.523Z,90.15
2023-05-09T06:49:26.620Z,89.93
2023-05-09T06:51:53.058Z,89.99
2023-05-09T06:54:19.683Z,89.66
2023-05-09T06:56:46.292Z,90.38
2023-05-09T06:59:13.414Z,90.50
2023-05-09T07:01:41.197Z,90.46
2023-05-09T07:04:07.818Z,90.51
2023-05-09T07:06:34.310Z,90.78
2023-05-09T07:09:00.923Z,91.02
2023-05-09T07:11:27.551Z,91.15
2023-05-09T07:13:53.934Z,91.00
2023-05-09T07:16:22.891Z,90.85
2023-05-09T07:18:49.495Z,91.08
2023-05-09T07:21:15.900Z,91.62
2023-05-09T07:23:42.298Z,91.85
2023-05-09T07:26:08.733Z,91.95
2023-05-09T07:28:35.181Z,92.07
2023-05-09T07:31:01.592Z,91.75
2023-05-09T07:33:28.057Z,92.18
2023-05-09T07:35:54.830Z,92.18
2023-05-09T07:38:21.279Z,92.29
2023-05-09T07:40:47.821Z,92.72
2023-05-09T07:43:14.302Z,93.46
2023-05-09T07:45:40.978Z,93.31
2023-05-09T07:48:07.710Z,93.55
2023-05-09T07:50:34.260Z,93.70
2023-05-09T07:53:00.795Z,93.64
2023-05-09T07:55:27.372Z,94.20
2023-05-09T07:57:53.728Z,94.61
2023-05-09T08:00:23.898Z,94.65
2023-05-09T08:02:51.551Z,94.96
2023-05-09T08:05:18.451Z,95.08
2023-05-09T08:07:45.396Z,94.86
2023-05-09T08:10:12.039Z,95.05
2023-05-09T08:12:38.904Z,95.46
2023-05-09T08:15:06.148Z,95.54
2023-05-09T08:17:32.658Z,95.81
2023-05-09T08:19:59.457Z,96.09
2023-05-09T08:22:26.040Z,96.39
2023-05-09T08:24:52.470Z,96.28
2023-05-09T08:27:18.917Z,96.20
2023-05-09T08:29:45.448Z,96.03
2023-05-09T08:32:11.974Z,95.72
2023-05-09T08:34:38.480Z,95.63
2023-05-09T08:37:05.257Z,95.88
2023-05-09T08:39:31.828Z,96.15
2023-05-09T08:42:00.075Z,96.24
2023-05-09T08:44:28.837Z,96.07
2023-05-09T08:46:58.480Z,95.77
2023-05-09T08:49:25.980Z,95.35
2023-05-09T08:51:53.122Z,95.57
2023-05-09T08:54:22.786Z,95.91
2023-05-09T08:56:50.356Z,96.15
2023-05-09T08:59:18.753Z,95.48
2023-05-09T09:01:45.729Z,95.78
2023-05-09T09:04:12.261Z,96.20
2023-05-09T09:06:40.553Z,96.10
2023-05-09T09:09:08.871Z,96.44
2023-05-09T09:11:36.876Z,96.62
2023-05-09T09:14:28.590Z,96.95
2023-05-09T09:16:57.193Z,96.92
2023-05-09T09:19:29.854Z,96.91
2023-05-09T09:21:59.738Z,97.21
2023-05-09T09:24:26.143Z,97.10
2023-05-09T09:26:52.782Z,97.89
2023-05-09T09:29:21.027Z,97.41
2023-05-09T09:31:52.105Z,97.48
2023-05-09T09:34:23.092Z,97.97
2023-05-09T09:36:50.097Z,98.15
2023-05-09T09:39:16.763Z,97.78
2023-05-09T09:41:44.850Z,98.48
2023-05-09T09:44:16.848Z,98.64
2023-05-09T09:46:50.687Z,98.58
2023-05-09T09:49:22.213Z,98.40
2023-05-09T09:51:55.810Z,97.94
2023-05-09T09:54:23.101Z,98.28
2023-05-09T09:56:53.312Z,98.17
2023-05-09T09:59:22.052Z,98.20
2023-05-09T10:01:58.680Z,99.02
2023-05-09T10:04:26.991Z,99.38
2023-05-09T10:06:57.989Z,100.00
2023-05-09T10:09:26.064Z,100.00
2023-05-09T10:11:54.208Z,100.00
2023-05-09T10:14:23.505Z,100.00
2023-05-09T10:16:52.687Z,100.00
2023-05-09T10:19:23.454Z,100.00
2023-05-09T10:21:53.435Z,100.00
2023-05-09T10:24:27.952Z,100.00
2023-05-09T10:27:06.659Z,100.00
2023-05-09T10:29:36.583Z,100.00
2023-05-09T10:32:23.214Z,100.00
2023-05-09T10:34:54.614Z,100.00
2023-05-09T10:37:22.248Z,100.00
2023-05-09T10:39:53.129Z,100.00
2023-05-09T10:42:20.306Z,100.00
2023-05-09T10:44:47.860Z,100.00
2023-05-09T10:47:15.468Z,100.00
2023-05-09T10:49:43.635Z,100.00
2023-05-09T10:52:10.946Z,100.00
2023-05-09T10:54:38.022Z,100.00
2023-05-09T10:57:08.793Z,100.00
2023-05-09T10:59:41.126Z,100.00
2023-05-09T11:02:16.528Z,100.00
2023-05-09T11:04:44.580Z,100.00
2023-05-09T11:07:27.640Z,100.00
2023-05-09T11:10:14.989Z,100.00
2023-05-09T11:12:57.727Z,100.00
2023-05-09T11:15:24.786Z,100.00
2023-05-09T11:18:06.144Z,100.00
2023-05-09T11:20:36.451Z,100.00
2023-05-09T11:23:06.991Z,100.00
2023-05-09T11:25:33.434Z,100.00
2023-05-09T11:28:03.318Z,100.00
2023-05-09T11:30:40.431Z,100.00
2023-05-09T11:33:21.016Z,100.00
2023-05-09T11:35:47.524Z,100.00
2023-05-09T11:38:21.156Z,100.00
2023-05-09T11:40:47.772Z,100.00
2023-05-09T11:43:14.601Z,100.00
2023-05-09T11:45:41.730Z,100.00
2023-05-09T11:48:11.547Z,100.00
2023-05-09T11:50:38.218Z,100.00
2023-05-09T11:53:04.981Z,100.00
2023-05-09T11:55:32.686Z,100.00
2023-05-09T11:57:59.387Z,100.00
2023-05-09T12:00:26.558Z,100.00
2023-05-09T12:02:53.941Z,100.00
2023-05-09T12:05:22.930Z,100.00
2023-05-09T12:07:50.897Z,100.00
2023-05-09T12:10:20.813Z,100.00
2023-05-09T12:12:51.713Z,100.00
2023-05-09T12:15:19.772Z,100.00
2023-05-09T12:17:48.130Z,100.00
2023-05-09T12:20:16.194Z,100.00
2023-05-09T12:22:43.844Z,100.00
2023-05-09T12:25:12.467Z,100.00
2023-05-09T12:27:40.712Z,100.00
2023-05-09T12:30:10.535Z,100.00
2023-05-09T12:32:39.639Z,100.00
2023-05-09T12:35:11.011Z,100.00
2023-05-09T12:37:38.010Z,100.00
2023-05-09T12:40:08.676Z,100.00
2023-05-09T12:42:36.132Z,100.00
2023-05-09T12:45:03.649Z,100.00
2023-05-09T12:47:31.808Z,100.00
2023-05-09T12:50:03.161Z,100.00
2023-05-09T12:53:02.102Z,100.00
2023-05-09T12:55:30.292Z,100.00
2023-05-09T12:58:02.457Z,100.00
2023-05-09T13:00:41.598Z,100.00
2023-05-09T13:03:31.333Z,100.00
2023-05-09T13:06:01.991Z,100.00
2023-05-09T13:08:29.462Z,100.00
2023-05-09T13:11:07.803Z,100.00
2023-05-09T13:13:34.799Z,100.00
2023-05-09T13:16:04.207Z,100.00
2023-05-09T13:18:31.142Z,100.00
2023-05-09T13:20:57.711Z,100.00
2023-05-09T13:23:24.281Z,100.00
2023-05-09T13:25:51.425Z,100.00
2023-05-09T13:28:18.005Z,100.00
2023-05-09T13:30:45.897Z,100.00
2023-05-09T13:33:24.409Z,100.00
2023-05-09T13:35:52.599Z,100.00
2023-05-09T13:38:19.177Z,100.00
2023-05-09T13:40:45.877Z,100.00
2023-05-09T13:43:12.285Z,100.00
2023-05-09T13:45:38.833Z,100.00
2023-05-09T13:48:05.741Z,100.00
2023-05-09T13:50:32.218Z,100.00
2023-05-09T13:52:58.677Z,100.00
2023-05-09T13:55:26.639Z,100.00
2023-05-09T13:57:53.097Z,100.00
2023-05-09T14:00:21.388Z,100.00
2023-05-09T14:02:48.361Z,100.00
2023-05-09T14:05:15.052Z,100.00
2023-05-09T14:07:41.488Z,100.00
2023-05-09T14:10:11.978Z,100.00
2023-05-09T14:12:40.493Z,100.00
2023-05-09T14:15:08.342Z,100.00
2023-05-09T14:17:34.889Z,100.00
2023-05-09T14:20:01.368Z,100.00
2023-05-09T14:22:28.264Z,100.00
2023-05-09T14:24:56.548Z,100.00
2023-05-09T14:27:23.193Z,100.00
2023-05-09T14:29:49.690Z,100.00
2023-05-09T14:32:16.223Z,100.00
2023-05-09T14:34:42.964Z,100.00
2023-05-09T14:37:13.863Z,100.00
2023-05-09T14:39:42.532Z,100.00
2023-05-09T14:42:11.524Z,100.00
2023-05-09T14:44:38.730Z,100.00
2023-05-09T14:47:05.773Z,100.00
2023-05-09T14:49:32.751Z,100.00
2023-05-09T14:51:59.485Z,100.00
2023-05-09T14:54:26.235Z,100.00
2023-05-09T14:56:52.676Z,100.00
2023-05-09T14:59:19.166Z,100.00
2023-05-09T15:01:46.402Z,100.00
2023-05-09T15:04:13.102Z,100.00
2023-05-09T15:06:39.772Z,100.00
2023-05-09T15:09:06.974Z,100.00
2023-05-09T15:11:43.790Z,100.00
2023-05-09T15:14:14.026Z,100.00
2023-05-09T15:16:40.633Z,100.00
2023-05-09T15:19:08.188Z,100.00
2023-05-09T15:21:35.208Z,100.00
2023-05-09T15:24:02.614Z,100.00
2023-05-09T15:26:29.596Z,100.00
2023-05-09T15:28:56.238Z,100.00
2023-05-09T15:31:24.143Z,100.00
2023-05-09T15:33:50.737Z,100.00
2023-05-09T15:36:17.363Z,100.00
2023-05-09T15:38:46.185Z,100.00
2023-05-09T15:41:12.720Z,100.00
2023-05-09T15:43:39.307Z,100.00
2023-05-09T15:46:05.919Z,100.00
2023-05-09T15:48:32.416Z,100.00
2023-05-09T15:50:58.951Z,100.00
2023-05-09T15:53:27.549Z,100.00
2023-05-09T15:55:54.361Z,100.00
2023-05-09T15:58:20.892Z,100.00
2023-05-09T16:00:47.818Z,100.00
2023-05-09T16:03:14.250Z,100.00
2023-05-09T16:05:41.096Z,100.00
2023-05-09T16:08:07.824Z,100.00
2023-05-09T16:10:34.284Z,100.00
2023-05-09T16:13:00.926Z,100.00
2023-05-09T16:15:27.583Z,100.00
2023-05-09T16:17:54.129Z,100.00
2023-05-09T16:20:20.640Z,100.00
2023-05-09T16:22:47.198Z,100.00
2023-05-09T16:25:13.963Z,100.00
2023-05-09T16:27:40.721Z,100.00
2023-05-09T16:30:07.958Z,100.00
2023-05-09T16:32:34.324Z,100.00
2023-05-09T16:35:00.981Z,100.00
2023-05-09T16:37:29.802Z,100.00
2023-05-09T16:39:56.476Z,100.00
2023-05-09T16:42:23.036Z,100.00
2023-05-09T16:44:49.589Z,100.00
2023-05-09T16:47:16.098Z,100.00
2023-05-09T16:49:42.628Z,100.00
2023-05-09T16:52:09.410Z,100.00
2023-05-09T16:54:35.858Z,100.00
2023-05-09T16:57:03.233Z,100.00
2023-05-09T16:59:30.024Z,100.00
2023-05-09T17:01:58.050Z,100.00
2023-05-09T17:04:25.306Z,100.00
2023-05-09T17:06:53.407Z,100.00
2023-05-09T17:09:19.920Z,100.00
2023-05-09T17:11:46.510Z,100.00
2023-05-09T17:14:12.982Z,100.00
2023-05-09T17:16:39.533Z,100.00
2023-05-09T17:19:06.159Z,100.00
2023-05-09T17:21:32.753Z,100.00
2023-05-09T17:23:59.383Z,100.00
2023-05-09T17:26:25.985Z,100.00
2023-05-09T17:28:52.484Z,100.00
2023-05-09T17:31:19.169Z,100.00
2023-05-09T17:33:45.874Z,100.00
2023-05-09T17:36:12.323Z,100.00
2023-05-09T17:38:38.781Z,100.00
2023-05-09T17:41:05.989Z,100.00
2023-05-09T17:43:32.466Z,100.00
2023-05-09T17:45:59.257Z,100.00
2023-05-09T17:48:25.947Z,100.00
2023-05-09T17:50:52.798Z,100.00
2023-05-09T17:53:19.280Z,100.00
2023-05-09T17:55:45.719Z,100.00
2023-05-09T17:58:12.144Z,100.00
2023-05-09T18:00:38.612Z,100.00
2023-05-09T18:03:05.290Z,100.00
2023-05-09T18:05:32.036Z,100.00
2023-05-09T18:08:00.904Z,100.00
2023-05-09T18:10:28.373Z,100.00
2023-05-09T18:12:55.240Z,100.00
2023-05-09T18:15:21.894Z,100.00
2023-05-09T18:17:49.238Z,100.00
2023-05-09T18:20:15.892Z,100.00
2023-05-09T18:22:42.523Z,100.00
2023-05-09T18:25:10.134Z,100.00
2023-05-09T18:27:36.853Z,100.00
2023-05-09T18:30:04.177Z,100.00
2023-05-09T18:32:33.257Z,100.00
2023-05-09T18:35:04.030Z,100.00
2023-05-09T18:37:34.763Z,100.00
2023-05-09T18:45:48.659Z,100.00
2023-05-09T18:48:17.422Z,100.00
2023-05-09T18:50:48.867Z,100.00
2023-05-09T18:53:18.973Z,100.00
2023-05-09T18:55:46.484Z,100.00
2023-05-09T18:58:13.748Z,100.00
2023-05-09T19:00:40.264Z,100.00
2023-05-09T19:03:07.168Z,100.00
2023-05-09T19:05:34.382Z,100.00
2023-05-09T19:08:01.134Z,100.00
2023-05-09T19:10:28.090Z,100.00
2023-05-09T19:13:26.407Z,100.00
2023-05-09T19:15:53.173Z,100.00
2023-05-09T19:18:24.540Z,100.00
2023-05-09T19:20:55.108Z,100.00
2023-05-09T19:23:22.422Z,100.00
2023-05-09T19:25:50.984Z,100.00
2023-05-09T19:28:21.634Z,100.00
2023-05-09T19:30:49.167Z,100.00
2023-05-09T19:33:23.652Z,100.00
2023-05-09T19:35:57.291Z,100.00
2023-05-09T19:38:31.404Z,100.00
2023-05-09T19:40:59.567Z,100.00
2023-05-09T19:43:27.025Z,100.00
2023-05-09T19:45:54.318Z,100.00
2023-05-09T19:48:25.893Z,100.00
2023-05-09T19:51:01.628Z,100.00
2023-05-09T19:53:31.611Z,100.00
2023-05-09T19:56:03.891Z,100.00
2023-05-09T19:58:54.893Z,100.00
2023-05-09T20:01:26.263Z,100.00
2023-05-09T20:03:54.713Z,100.00
2023-05-09T20:06:22.464Z,100.00
2023-05-09T20:08:52.025Z,100.00
2023-05-09T20:11:19.650Z,100.00
2023-05-09T20:21:50.075Z,100.00
2023-05-09T20:24:16.711Z,100.00
2023-05-09T20:26:43.527Z,100.00
2023-05-09T20:29:10.334Z,100.00
2023-05-09T20:31:37.074Z,100.00
2023-05-09T20:34:03.744Z,100.00
2023-05-09T20:36:30.646Z,100.00
2023-05-09T20:39:17.730Z,100.00
2023-05-09T20:41:56.132Z,100.00
2023-05-09T20:44:26.713Z,100.00
2023-05-09T20:47:08.433Z,100.00
2023-05-09T20:49:41.995Z,100.00
2023-05-09T20:52:08.527Z,100.00
2023-05-09T20:54:35.854Z,100.00
2023-05-09T20:57:03.180Z,100.00
2023-05-09T20:59:30.527Z,100.00
2023-05-09T21:07:30.738Z,100.00
2023-05-09T21:09:58.655Z,100.00
2023-05-09T21:12:26.082Z,100.00
2023-05-09T21:14:53.308Z,100.00
2023-05-09T21:17:21.857Z,100.00
2023-05-09T21:19:52.220Z,100.00
2023-05-09T21:22:19.525Z,100.00
2023-05-09T21:24:46.781Z,100.00
2023-05-09T21:27:14.523Z,100.00
2023-05-09T21:30:01.682Z,100.00
2023-05-09T21:32:29.371Z,100.00
2023-05-09T21:34:56.334Z,100.00
2023-05-09T21:37:28.104Z,100.00
2023-05-09T21:40:15.651Z,100.00
2023-05-09T21:42:47.618Z,100.00
2023-05-09T21:45:14.412Z,100.00
2023-05-09T21:47:44.280Z,100.00
2023-05-09T21:50:12.694Z,100.00
2023-05-09T21:52:40.038Z,100.00
2023-05-09T21:55:16.678Z,100.00
2023-05-09T21:57:50.660Z,100.00
2023-05-09T22:00:22.170Z,100.00
2023-05-09T22:02:49.953Z,100.00
2023-05-09T22:05:42.139Z,100.00
2023-05-09T22:08:22.928Z,100.00
2023-05-09T22:10:50.135Z,100.00
2023-05-09T22:13:21.316Z,100.00
2023-05-09T22:16:11.021Z,100.00
2023-05-09T22:18:40.950Z,100.00
2023-05-09T22:21:10.925Z,100.00
2023-05-09T22:23:44.785Z,100.00
2023-05-09T22:26:27.706Z,100.00
2023-05-09T22:29:25.918Z,100.00
2023-05-09T22:31:59.871Z,100.00
2023-05-09T22:34:30.577Z,100.00
2023-05-09T22:37:11.182Z,100.00
2023-05-09T22:39:37.877Z,100.00
2023-05-09T22:42:05.176Z,100.00
2023-05-09T22:44:34.180Z,100.00
2023-05-09T22:47:04.122Z,100.00
2023-05-09T22:49:57.147Z,100.00
2023-05-09T22:52:24.583Z,100.00
2023-05-09T22:54:54.490Z,100.00
2023-05-09T22:57:26.048Z,100.00
2023-05-09T22:59:53.794Z,100.00
2023-05-09T23:02:24.098Z,100.00
2023-05-09T23:04:55.726Z,100.00
2023-05-09T23:07:23.900Z,100.00
2023-05-09T23:12:57.100Z,100.00
2023-05-09T23:18:23.848Z,100.00
2023-05-09T23:21:14.921Z,100.00
2023-05-09T23:23:44.952Z,100.00
2023-05-09T23:26:16.319Z,100.00
2023-05-09T23:28:49.971Z,100.00
2023-05-09T23:31:17.374Z,100.00
2023-05-09T23:33:44.674Z,100.00
2023-05-09T23:36:18.161Z,100.00
2023-05-09T23:38:46.352Z,100.00
2023-05-09T23:41:17.783Z,100.00
2023-05-09T23:43:48.009Z,100.00
2023-05-09T23:46:15.760Z,100.00
2023-05-09T23:48:46.894Z,100.00
2023-05-09T23:51:22.409Z,100.00
2023-05-09T23:53:56.992Z,100.00
2023-05-09T23:56:28.390Z,100.00
2023-05-09T23:58:56.965Z,100.00
